Alert Bay, Canada
Current Conditions -  °F | °C
As of 3:00 PM on Wednesday 17 Dec 2014 (Local Time) from CYZT Reporting Station
Clear Clear  
Wind Chill: 43°   Ceiling: Unl
Heat Index: 43°   Visibility: 15mi
Dew Point: 41°   Wind: 3mph
Humidity: 93%   Direction: 150°SSE
Pressure: 29.83"   Gusts: NA
Location:  50.58°N, 126.92°W
Report Text: CYZT 172300Z 15003KT 15SM 06/05 A2983 RMK SLP101
Loading
Personal Weather Stations






























Interactive Weather Map New forecast layout! Learn more

10-Day Weather Forecast

Advertisements
Track Severe Weather on mobile